sensor_id;sensor_type;location;lat;lon;timestamp;P1;durP1;ratioP1;P2;durP2;ratioP2
43124;SDS011;49182;50.788;7.318;2023-05-02T00:00:24;15.82;;;8.50;;
43124;SDS011;49182;50.788;7.318;2023-05-02T00:02:51;15.73;;;8.75;;
43124;SDS011;49182;50.788;7.318;2023-05-02T00:05:18;13.35;;;8.45;;
43124;SDS011;49182;50.788;7.318;2023-05-02T00:07:45;11.60;;;7.20;;
43124;SDS011;49182;50.788;7.318;2023-05-02T00:10:13;16.85;;;7.72;;
43124;SDS011;49182;50.788;7.318;2023-05-02T00:12:40;10.80;;;7.15;;
43124;SDS011;49182;50.788;7.318;2023-05-02T00:15:07;13.10;;;7.47;;
43124;SDS011;49182;50.788;7.318;2023-05-02T00:17:34;10.13;;;7.10;;
43124;SDS011;49182;50.788;7.318;2023-05-02T00:20:01;9.30;;;6.10;;
43124;SDS011;49182;50.788;7.318;2023-05-02T00:22:28;10.07;;;5.88;;
43124;SDS011;49182;50.788;7.318;2023-05-02T00:24:55;13.23;;;5.70;;
43124;SDS011;49182;50.788;7.318;2023-05-02T00:27:23;10.38;;;6.13;;
43124;SDS011;49182;50.788;7.318;2023-05-02T00:29:50;9.32;;;6.22;;
43124;SDS011;49182;50.788;7.318;2023-05-02T00:32:18;7.55;;;5.10;;
43124;SDS011;49182;50.788;7.318;2023-05-02T00:34:44;10.07;;;6.38;;
43124;SDS011;49182;50.788;7.318;2023-05-02T00:37:11;9.32;;;5.95;;
43124;SDS011;49182;50.788;7.318;2023-05-02T00:39:37;11.00;;;5.80;;
43124;SDS011;49182;50.788;7.318;2023-05-02T00:42:05;9.95;;;5.95;;
43124;SDS011;49182;50.788;7.318;2023-05-02T00:44:33;10.70;;;6.15;;
43124;SDS011;49182;50.788;7.318;2023-05-02T00:47:00;8.65;;;6.25;;
43124;SDS011;49182;50.788;7.318;2023-05-02T00:49:27;12.32;;;6.68;;
43124;SDS011;49182;50.788;7.318;2023-05-02T00:51:53;10.48;;;5.90;;
43124;SDS011;49182;50.788;7.318;2023-05-02T00:54:20;9.18;;;6.28;;
43124;SDS011;49182;50.788;7.318;2023-05-02T00:56:47;13.15;;;6.40;;
43124;SDS011;49182;50.788;7.318;2023-05-02T00:59:13;13.82;;;6.53;;
43124;SDS011;49182;50.788;7.318;2023-05-02T01:01:47;10.85;;;6.57;;
43124;SDS011;49182;50.788;7.318;2023-05-02T01:04:26;8.38;;;5.65;;
43124;SDS011;49182;50.788;7.318;2023-05-02T01:07:13;13.68;;;6.28;;
43124;SDS011;49182;50.788;7.318;2023-05-02T01:09:51;10.10;;;6.38;;
43124;SDS011;49182;50.788;7.318;2023-05-02T01:12:40;9.00;;;6.53;;
43124;SDS011;49182;50.788;7.318;2023-05-02T01:15:11;9.55;;;6.93;;
43124;SDS011;49182;50.788;7.318;2023-05-02T01:17:43;13.60;;;7.30;;
43124;SDS011;49182;50.788;7.318;2023-05-02T01:20:13;11.30;;;7.25;;
43124;SDS011;49182;50.788;7.318;2023-05-02T01:22:42;13.65;;;7.35;;
43124;SDS011;49182;50.788;7.318;2023-05-02T01:25:13;9.15;;;6.53;;
43124;SDS011;49182;50.788;7.318;2023-05-02T01:27:47;13.00;;;7.50;;
43124;SDS011;49182;50.788;7.318;2023-05-02T01:30:23;11.00;;;7.03;;
43124;SDS011;49182;50.788;7.318;2023-05-02T01:35:20;10.35;;;6.55;;
43124;SDS011;49182;50.788;7.318;2023-05-02T01:37:49;12.00;;;6.82;;
43124;SDS011;49182;50.788;7.318;2023-05-02T01:40:18;15.32;;;7.47;;
43124;SDS011;49182;50.788;7.318;2023-05-02T01:42:46;10.50;;;6.47;;
43124;SDS011;49182;50.788;7.318;2023-05-02T01:45:15;10.10;;;6.93;;
43124;SDS011;49182;50.788;7.318;2023-05-02T01:47:45;10.30;;;7.03;;
43124;SDS011;49182;50.788;7.318;2023-05-02T01:50:13;11.27;;;7.28;;
43124;SDS011;49182;50.788;7.318;2023-05-02T01:52:44;10.65;;;7.00;;
43124;SDS011;49182;50.788;7.318;2023-05-02T01:55:14;11.48;;;7.55;;
43124;SDS011;49182;50.788;7.318;2023-05-02T01:57:43;10.25;;;7.07;;
43124;SDS011;49182;50.788;7.318;2023-05-02T02:00:12;12.50;;;7.72;;
43124;SDS011;49182;50.788;7.318;2023-05-02T02:02:42;12.98;;;7.95;;
43124;SDS011;49182;50.788;7.318;2023-05-02T02:05:13;15.80;;;8.30;;
43124;SDS011;49182;50.788;7.318;2023-05-02T02:07:40;13.55;;;7.32;;
43124;SDS011;49182;50.788;7.318;2023-05-02T02:10:08;12.77;;;7.95;;
43124;SDS011;49182;50.788;7.318;2023-05-02T02:12:35;12.27;;;8.10;;
43124;SDS011;49182;50.788;7.318;2023-05-02T02:15:08;15.27;;;8.10;;
43124;SDS011;49182;50.788;7.318;2023-05-02T02:17:39;12.93;;;7.90;;
43124;SDS011;49182;50.788;7.318;2023-05-02T02:20:12;11.70;;;7.85;;
43124;SDS011;49182;50.788;7.318;2023-05-02T02:22:41;13.40;;;7.93;;
43124;SDS011;49182;50.788;7.318;2023-05-02T02:25:11;19.80;;;8.30;;
43124;SDS011;49182;50.788;7.318;2023-05-02T02:27:42;11.90;;;7.53;;
43124;SDS011;49182;50.788;7.318;2023-05-02T02:30:09;11.43;;;7.80;;
43124;SDS011;49182;50.788;7.318;2023-05-02T02:32:36;12.65;;;8.10;;
43124;SDS011;49182;50.788;7.318;2023-05-02T02:35:03;10.90;;;7.35;;
43124;SDS011;49182;50.788;7.318;2023-05-02T02:37:33;13.07;;;8.80;;
43124;SDS011;49182;50.788;7.318;2023-05-02T02:42:35;12.80;;;8.13;;
43124;SDS011;49182;50.788;7.318;2023-05-02T02:45:10;12.88;;;8.38;;
43124;SDS011;49182;50.788;7.318;2023-05-02T02:47:46;13.02;;;8.48;;
43124;SDS011;49182;50.788;7.318;2023-05-02T02:50:19;14.73;;;8.43;;
43124;SDS011;49182;50.788;7.318;2023-05-02T02:52:54;15.20;;;9.70;;
43124;SDS011;49182;50.788;7.318;2023-05-02T02:55:28;15.43;;;9.75;;
43124;SDS011;49182;50.788;7.318;2023-05-02T02:58:03;24.00;;;12.60;;
43124;SDS011;49182;50.788;7.318;2023-05-02T03:00:40;22.23;;;13.05;;
43124;SDS011;49182;50.788;7.318;2023-05-02T03:03:07;26.42;;;15.65;;
43124;SDS011;49182;50.788;7.318;2023-05-02T03:05:35;25.35;;;14.13;;
43124;SDS011;49182;50.788;7.318;2023-05-02T03:08:05;31.85;;;15.88;;
43124;SDS011;49182;50.788;7.318;2023-05-02T03:10:31;27.10;;;15.85;;
43124;SDS011;49182;50.788;7.318;2023-05-02T03:12:58;44.45;;;21.70;;
43124;SDS011;49182;50.788;7.318;2023-05-02T03:15:37;44.55;;;23.10;;
43124;SDS011;49182;50.788;7.318;2023-05-02T03:18:41;52.55;;;26.38;;
43124;SDS011;49182;50.788;7.318;2023-05-02T03:21:08;53.08;;;25.10;;
43124;SDS011;49182;50.788;7.318;2023-05-02T03:23:36;63.53;;;29.83;;
43124;SDS011;49182;50.788;7.318;2023-05-02T03:26:03;57.30;;;29.02;;
43124;SDS011;49182;50.788;7.318;2023-05-02T03:28:30;59.63;;;30.20;;
43124;SDS011;49182;50.788;7.318;2023-05-02T03:30:57;63.28;;;30.77;;
43124;SDS011;49182;50.788;7.318;2023-05-02T03:33:25;58.97;;;29.02;;
43124;SDS011;49182;50.788;7.318;2023-05-02T03:35:51;60.15;;;28.58;;
43124;SDS011;49182;50.788;7.318;2023-05-02T03:38:19;68.65;;;31.48;;
43124;SDS011;49182;50.788;7.318;2023-05-02T03:40:49;59.22;;;29.17;;
43124;SDS011;49182;50.788;7.318;2023-05-02T03:43:16;58.40;;;28.67;;
43124;SDS011;49182;50.788;7.318;2023-05-02T03:45:43;58.35;;;27.25;;
43124;SDS011;49182;50.788;7.318;2023-05-02T03:48:13;58.40;;;27.75;;
43124;SDS011;49182;50.788;7.318;2023-05-02T03:50:40;57.55;;;26.60;;
43124;SDS011;49182;50.788;7.318;2023-05-02T03:53:07;51.95;;;25.35;;
43124;SDS011;49182;50.788;7.318;2023-05-02T03:55:42;55.97;;;25.40;;
43124;SDS011;49182;50.788;7.318;2023-05-02T03:58:17;50.78;;;23.52;;
43124;SDS011;49182;50.788;7.318;2023-05-02T04:00:44;52.03;;;24.33;;
43124;SDS011;49182;50.788;7.318;2023-05-02T04:03:11;49.35;;;24.38;;
43124;SDS011;49182;50.788;7.318;2023-05-02T04:05:41;51.65;;;24.30;;
43124;SDS011;49182;50.788;7.318;2023-05-02T04:08:09;48.08;;;23.73;;
43124;SDS011;49182;50.788;7.318;2023-05-02T04:10:36;46.72;;;22.52;;
43124;SDS011;49182;50.788;7.318;2023-05-02T04:13:06;45.55;;;23.00;;
43124;SDS011;49182;50.788;7.318;2023-05-02T04:15:36;47.08;;;22.88;;
43124;SDS011;49182;50.788;7.318;2023-05-02T04:18:04;45.70;;;23.23;;
43124;SDS011;49182;50.788;7.318;2023-05-02T04:20:32;46.42;;;22.05;;
43124;SDS011;49182;50.788;7.318;2023-05-02T04:22:58;43.15;;;22.13;;
43124;SDS011;49182;50.788;7.318;2023-05-02T04:25:26;48.70;;;22.02;;
43124;SDS011;49182;50.788;7.318;2023-05-02T04:27:55;45.35;;;21.00;;
43124;SDS011;49182;50.788;7.318;2023-05-02T04:30:23;46.00;;;21.85;;
43124;SDS011;49182;50.788;7.318;2023-05-02T04:33:12;46.80;;;19.98;;
43124;SDS011;49182;50.788;7.318;2023-05-02T04:35:38;46.33;;;21.63;;
43124;SDS011;49182;50.788;7.318;2023-05-02T04:38:06;41.60;;;21.80;;
43124;SDS011;49182;50.788;7.318;2023-05-02T04:40:34;40.42;;;20.15;;
43124;SDS011;49182;50.788;7.318;2023-05-02T04:43:04;44.90;;;21.45;;
43124;SDS011;49182;50.788;7.318;2023-05-02T04:45:46;45.40;;;21.25;;
43124;SDS011;49182;50.788;7.318;2023-05-02T04:48:21;43.25;;;20.85;;
43124;SDS011;49182;50.788;7.318;2023-05-02T04:50:48;46.28;;;22.92;;
43124;SDS011;49182;50.788;7.318;2023-05-02T04:53:15;43.05;;;20.98;;
43124;SDS011;49182;50.788;7.318;2023-05-02T04:55:41;46.17;;;20.63;;
43124;SDS011;49182;50.788;7.318;2023-05-02T04:58:09;41.50;;;20.75;;
43124;SDS011;49182;50.788;7.318;2023-05-02T05:00:38;43.25;;;21.52;;
43124;SDS011;49182;50.788;7.318;2023-05-02T05:03:05;42.90;;;20.58;;
43124;SDS011;49182;50.788;7.318;2023-05-02T05:05:33;44.28;;;20.65;;
43124;SDS011;49182;50.788;7.318;2023-05-02T05:08:01;44.38;;;20.73;;
43124;SDS011;49182;50.788;7.318;2023-05-02T05:10:31;46.75;;;22.10;;
43124;SDS011;49182;50.788;7.318;2023-05-02T05:12:59;43.78;;;20.92;;
43124;SDS011;49182;50.788;7.318;2023-05-02T05:15:26;44.58;;;21.40;;
43124;SDS011;49182;50.788;7.318;2023-05-02T05:17:56;45.03;;;20.20;;
43124;SDS011;49182;50.788;7.318;2023-05-02T05:20:23;46.30;;;19.92;;
43124;SDS011;49182;50.788;7.318;2023-05-02T05:22:55;42.40;;;20.05;;
43124;SDS011;49182;50.788;7.318;2023-05-02T05:25:24;38.33;;;18.50;;
43124;SDS011;49182;50.788;7.318;2023-05-02T05:27:52;45.33;;;20.77;;
43124;SDS011;49182;50.788;7.318;2023-05-02T05:30:19;44.67;;;21.20;;
43124;SDS011;49182;50.788;7.318;2023-05-02T05:32:46;44.60;;;21.05;;
43124;SDS011;49182;50.788;7.318;2023-05-02T05:35:12;40.42;;;21.08;;
43124;SDS011;49182;50.788;7.318;2023-05-02T05:37:39;41.83;;;20.70;;
43124;SDS011;49182;50.788;7.318;2023-05-02T05:40:11;45.83;;;20.20;;
43124;SDS011;49182;50.788;7.318;2023-05-02T05:42:41;41.58;;;20.30;;
43124;SDS011;49182;50.788;7.318;2023-05-02T05:45:14;44.47;;;21.23;;
43124;SDS011;49182;50.788;7.318;2023-05-02T05:47:41;41.35;;;19.30;;
43124;SDS011;49182;50.788;7.318;2023-05-02T05:50:08;40.75;;;20.52;;
43124;SDS011;49182;50.788;7.318;2023-05-02T05:52:36;40.75;;;19.80;;
43124;SDS011;49182;50.788;7.318;2023-05-02T05:55:03;44.85;;;21.17;;
43124;SDS011;49182;50.788;7.318;2023-05-02T05:57:33;46.55;;;20.38;;
43124;SDS011;49182;50.788;7.318;2023-05-02T05:59:59;41.70;;;18.98;;
43124;SDS011;49182;50.788;7.318;2023-05-02T06:02:28;45.05;;;19.45;;
43124;SDS011;49182;50.788;7.318;2023-05-02T06:04:56;42.33;;;20.33;;
43124;SDS011;49182;50.788;7.318;2023-05-02T06:07:24;36.05;;;18.52;;
43124;SDS011;49182;50.788;7.318;2023-05-02T06:09:51;42.45;;;20.33;;
43124;SDS011;49182;50.788;7.318;2023-05-02T06:12:17;34.17;;;17.85;;
43124;SDS011;49182;50.788;7.318;2023-05-02T06:14:46;41.53;;;19.40;;
43124;SDS011;49182;50.788;7.318;2023-05-02T06:17:13;44.35;;;21.63;;
43124;SDS011;49182;50.788;7.318;2023-05-02T06:19:40;41.05;;;19.98;;
43124;SDS011;49182;50.788;7.318;2023-05-02T06:22:06;44.08;;;20.85;;
43124;SDS011;49182;50.788;7.318;2023-05-02T06:24:33;42.38;;;20.02;;
43124;SDS011;49182;50.788;7.318;2023-05-02T06:27:00;44.58;;;22.20;;
43124;SDS011;49182;50.788;7.318;2023-05-02T06:29:26;48.13;;;21.35;;
43124;SDS011;49182;50.788;7.318;2023-05-02T06:31:55;41.85;;;21.45;;
43124;SDS011;49182;50.788;7.318;2023-05-02T06:34:21;43.17;;;20.98;;
43124;SDS011;49182;50.788;7.318;2023-05-02T06:36:48;48.28;;;22.13;;
43124;SDS011;49182;50.788;7.318;2023-05-02T06:39:19;44.25;;;21.48;;
43124;SDS011;49182;50.788;7.318;2023-05-02T06:41:46;42.88;;;20.13;;
43124;SDS011;49182;50.788;7.318;2023-05-02T06:44:15;41.38;;;20.17;;
43124;SDS011;49182;50.788;7.318;2023-05-02T06:46:42;43.08;;;20.13;;
43124;SDS011;49182;50.788;7.318;2023-05-02T06:49:10;42.92;;;21.55;;
43124;SDS011;49182;50.788;7.318;2023-05-02T06:51:36;43.13;;;21.17;;
43124;SDS011;49182;50.788;7.318;2023-05-02T06:54:04;43.05;;;19.33;;
43124;SDS011;49182;50.788;7.318;2023-05-02T06:56:31;37.50;;;19.52;;
43124;SDS011;49182;50.788;7.318;2023-05-02T06:58:58;37.88;;;18.83;;
43124;SDS011;49182;50.788;7.318;2023-05-02T07:01:24;36.95;;;18.70;;
43124;SDS011;49182;50.788;7.318;2023-05-02T07:03:51;39.72;;;19.33;;
43124;SDS011;49182;50.788;7.318;2023-05-02T07:06:19;39.75;;;17.90;;
43124;SDS011;49182;50.788;7.318;2023-05-02T07:08:46;35.03;;;17.38;;
43124;SDS011;49182;50.788;7.318;2023-05-02T07:11:12;32.40;;;17.13;;
43124;SDS011;49182;50.788;7.318;2023-05-02T07:13:39;33.15;;;15.90;;
43124;SDS011;49182;50.788;7.318;2023-05-02T07:16:06;33.65;;;16.23;;
43124;SDS011;49182;50.788;7.318;2023-05-02T07:18:33;31.55;;;15.90;;
43124;SDS011;49182;50.788;7.318;2023-05-02T07:20:59;32.58;;;15.68;;
43124;SDS011;49182;50.788;7.318;2023-05-02T07:23:27;31.55;;;15.88;;
43124;SDS011;49182;50.788;7.318;2023-05-02T07:25:54;35.50;;;16.88;;
43124;SDS011;49182;50.788;7.318;2023-05-02T07:28:21;32.95;;;16.10;;
43124;SDS011;49182;50.788;7.318;2023-05-02T07:30:47;31.92;;;16.27;;
43124;SDS011;49182;50.788;7.318;2023-05-02T07:33:14;32.28;;;16.58;;
43124;SDS011;49182;50.788;7.318;2023-05-02T07:35:41;30.65;;;15.52;;
43124;SDS011;49182;50.788;7.318;2023-05-02T07:38:08;28.98;;;14.85;;
43124;SDS011;49182;50.788;7.318;2023-05-02T07:40:36;32.33;;;15.00;;
43124;SDS011;49182;50.788;7.318;2023-05-02T07:43:03;30.50;;;15.43;;
43124;SDS011;49182;50.788;7.318;2023-05-02T07:45:30;28.38;;;14.30;;
43124;SDS011;49182;50.788;7.318;2023-05-02T07:47:57;33.40;;;15.10;;
43124;SDS011;49182;50.788;7.318;2023-05-02T07:50:24;30.83;;;14.77;;
43124;SDS011;49182;50.788;7.318;2023-05-02T07:52:50;30.95;;;13.15;;
43124;SDS011;49182;50.788;7.318;2023-05-02T07:55:17;24.38;;;12.30;;
43124;SDS011;49182;50.788;7.318;2023-05-02T07:57:45;22.83;;;11.27;;
43124;SDS011;49182;50.788;7.318;2023-05-02T08:00:12;21.27;;;10.90;;
43124;SDS011;49182;50.788;7.318;2023-05-02T08:02:40;20.60;;;10.00;;
43124;SDS011;49182;50.788;7.318;2023-05-02T08:05:07;20.67;;;10.77;;
43124;SDS011;49182;50.788;7.318;2023-05-02T08:07:34;19.65;;;9.55;;
43124;SDS011;49182;50.788;7.318;2023-05-02T08:10:01;18.83;;;10.68;;
43124;SDS011;49182;50.788;7.318;2023-05-02T08:12:29;19.90;;;10.55;;
43124;SDS011;49182;50.788;7.318;2023-05-02T08:14:57;20.70;;;9.95;;
43124;SDS011;49182;50.788;7.318;2023-05-02T08:17:24;20.33;;;10.73;;
43124;SDS011;49182;50.788;7.318;2023-05-02T08:19:50;19.13;;;9.82;;
43124;SDS011;49182;50.788;7.318;2023-05-02T08:22:17;19.48;;;10.48;;
43124;SDS011;49182;50.788;7.318;2023-05-02T08:24:44;21.08;;;11.82;;
43124;SDS011;49182;50.788;7.318;2023-05-02T08:27:10;18.98;;;11.07;;
43124;SDS011;49182;50.788;7.318;2023-05-02T08:29:37;19.98;;;12.20;;
43124;SDS011;49182;50.788;7.318;2023-05-02T08:32:05;22.13;;;12.20;;
43124;SDS011;49182;50.788;7.318;2023-05-02T08:34:32;20.75;;;11.63;;
43124;SDS011;49182;50.788;7.318;2023-05-02T08:36:59;21.67;;;12.95;;
43124;SDS011;49182;50.788;7.318;2023-05-02T08:39:25;20.95;;;12.50;;
43124;SDS011;49182;50.788;7.318;2023-05-02T08:41:52;20.38;;;12.52;;
43124;SDS011;49182;50.788;7.318;2023-05-02T08:44:18;17.73;;;10.90;;
43124;SDS011;49182;50.788;7.318;2023-05-02T08:46:46;15.25;;;9.15;;
43124;SDS011;49182;50.788;7.318;2023-05-02T08:49:16;17.00;;;8.18;;
43124;SDS011;49182;50.788;7.318;2023-05-02T08:51:44;14.13;;;8.48;;
43124;SDS011;49182;50.788;7.318;2023-05-02T08:54:15;13.25;;;7.45;;
43124;SDS011;49182;50.788;7.318;2023-05-02T08:56:42;12.77;;;6.53;;
43124;SDS011;49182;50.788;7.318;2023-05-02T08:59:08;12.80;;;6.85;;
43124;SDS011;49182;50.788;7.318;2023-05-02T09:01:35;13.30;;;6.07;;
43124;SDS011;49182;50.788;7.318;2023-05-02T09:04:04;12.27;;;5.82;;
43124;SDS011;49182;50.788;7.318;2023-05-02T09:06:33;10.55;;;5.53;;
43124;SDS011;49182;50.788;7.318;2023-05-02T09:09:01;12.38;;;5.93;;
43124;SDS011;49182;50.788;7.318;2023-05-02T09:11:28;15.68;;;6.38;;
43124;SDS011;49182;50.788;7.318;2023-05-02T09:13:55;11.68;;;5.78;;
43124;SDS011;49182;50.788;7.318;2023-05-02T09:16:22;12.32;;;6.25;;
43124;SDS011;49182;50.788;7.318;2023-05-02T09:18:51;12.80;;;6.05;;
43124;SDS011;49182;50.788;7.318;2023-05-02T09:21:19;11.48;;;6.50;;
43124;SDS011;49182;50.788;7.318;2023-05-02T09:23:48;11.13;;;5.85;;
43124;SDS011;49182;50.788;7.318;2023-05-02T09:26:16;12.68;;;6.38;;
43124;SDS011;49182;50.788;7.318;2023-05-02T09:28:44;12.75;;;6.30;;
43124;SDS011;49182;50.788;7.318;2023-05-02T09:31:13;12.75;;;6.20;;
43124;SDS011;49182;50.788;7.318;2023-05-02T09:33:52;11.15;;;6.22;;
43124;SDS011;49182;50.788;7.318;2023-05-02T09:36:20;13.77;;;5.95;;
43124;SDS011;49182;50.788;7.318;2023-05-02T09:38:48;10.60;;;6.07;;
43124;SDS011;49182;50.788;7.318;2023-05-02T09:41:16;10.55;;;5.80;;
43124;SDS011;49182;50.788;7.318;2023-05-02T09:43:42;11.15;;;5.72;;
43124;SDS011;49182;50.788;7.318;2023-05-02T09:46:09;11.82;;;5.82;;
43124;SDS011;49182;50.788;7.318;2023-05-02T09:48:50;11.40;;;5.85;;
43124;SDS011;49182;50.788;7.318;2023-05-02T09:51:18;12.50;;;6.75;;
43124;SDS011;49182;50.788;7.318;2023-05-02T09:53:45;12.65;;;5.70;;
43124;SDS011;49182;50.788;7.318;2023-05-02T09:56:14;11.43;;;6.15;;
43124;SDS011;49182;50.788;7.318;2023-05-02T09:58:41;12.27;;;5.93;;
43124;SDS011;49182;50.788;7.318;2023-05-02T10:01:12;11.18;;;6.38;;
43124;SDS011;49182;50.788;7.318;2023-05-02T10:03:40;11.65;;;6.25;;
43124;SDS011;49182;50.788;7.318;2023-05-02T10:06:07;10.90;;;5.97;;
43124;SDS011;49182;50.788;7.318;2023-05-02T10:08:35;10.80;;;5.53;;
43124;SDS011;49182;50.788;7.318;2023-05-02T10:11:02;10.35;;;5.20;;
43124;SDS011;49182;50.788;7.318;2023-05-02T10:13:33;13.88;;;6.47;;
43124;SDS011;49182;50.788;7.318;2023-05-02T10:16:03;8.80;;;5.00;;
43124;SDS011;49182;50.788;7.318;2023-05-02T10:18:32;9.60;;;5.93;;
43124;SDS011;49182;50.788;7.318;2023-05-02T10:21:07;13.52;;;6.38;;
43124;SDS011;49182;50.788;7.318;2023-05-02T10:23:36;10.32;;;5.80;;
43124;SDS011;49182;50.788;7.318;2023-05-02T10:26:06;14.38;;;7.63;;
43124;SDS011;49182;50.788;7.318;2023-05-02T10:28:34;16.23;;;9.30;;
43124;SDS011;49182;50.788;7.318;2023-05-02T10:31:03;16.17;;;10.52;;
43124;SDS011;49182;50.788;7.318;2023-05-02T10:33:31;17.92;;;11.63;;
43124;SDS011;49182;50.788;7.318;2023-05-02T10:36:00;21.08;;;11.43;;
43124;SDS011;49182;50.788;7.318;2023-05-02T10:38:27;19.65;;;12.10;;
43124;SDS011;49182;50.788;7.318;2023-05-02T10:40:55;19.00;;;11.57;;
43124;SDS011;49182;50.788;7.318;2023-05-02T10:43:24;20.73;;;11.70;;
43124;SDS011;49182;50.788;7.318;2023-05-02T10:45:54;15.55;;;9.25;;
43124;SDS011;49182;50.788;7.318;2023-05-02T10:48:21;17.60;;;8.68;;
43124;SDS011;49182;50.788;7.318;2023-05-02T10:50:50;9.80;;;5.90;;
43124;SDS011;49182;50.788;7.318;2023-05-02T10:53:21;12.30;;;5.95;;
43124;SDS011;49182;50.788;7.318;2023-05-02T10:58:43;8.82;;;3.20;;
43124;SDS011;49182;50.788;7.318;2023-05-02T11:04:03;5.45;;;2.67;;
43124;SDS011;49182;50.788;7.318;2023-05-02T11:06:31;5.60;;;3.05;;
43124;SDS011;49182;50.788;7.318;2023-05-02T11:12:01;8.25;;;2.97;;
43124;SDS011;49182;50.788;7.318;2023-05-02T11:14:41;8.88;;;3.75;;
43124;SDS011;49182;50.788;7.318;2023-05-02T11:17:12;10.63;;;4.15;;
43124;SDS011;49182;50.788;7.318;2023-05-02T11:22:49;10.45;;;4.05;;
43124;SDS011;49182;50.788;7.318;2023-05-02T11:25:29;11.07;;;4.00;;
43124;SDS011;49182;50.788;7.318;2023-05-02T11:28:00;8.57;;;4.20;;
43124;SDS011;49182;50.788;7.318;2023-05-02T11:30:35;11.00;;;4.35;;
43124;SDS011;49182;50.788;7.318;2023-05-02T11:33:17;6.90;;;3.70;;
43124;SDS011;49182;50.788;7.318;2023-05-02T11:35:44;7.70;;;4.13;;
43124;SDS011;49182;50.788;7.318;2023-05-02T11:38:13;8.63;;;3.92;;
43124;SDS011;49182;50.788;7.318;2023-05-02T11:40:48;7.97;;;4.25;;
43124;SDS011;49182;50.788;7.318;2023-05-02T11:43:25;9.07;;;4.30;;
43124;SDS011;49182;50.788;7.318;2023-05-02T11:45:57;9.20;;;4.25;;
43124;SDS011;49182;50.788;7.318;2023-05-02T11:48:25;8.15;;;4.68;;
43124;SDS011;49182;50.788;7.318;2023-05-02T11:50:53;7.80;;;4.53;;
43124;SDS011;49182;50.788;7.318;2023-05-02T11:53:22;10.70;;;4.60;;
43124;SDS011;49182;50.788;7.318;2023-05-02T11:55:51;8.30;;;4.95;;
43124;SDS011;49182;50.788;7.318;2023-05-02T11:58:19;9.27;;;4.95;;
43124;SDS011;49182;50.788;7.318;2023-05-02T12:00:47;9.25;;;5.00;;
43124;SDS011;49182;50.788;7.318;2023-05-02T12:03:22;8.32;;;5.07;;
43124;SDS011;49182;50.788;7.318;2023-05-02T12:06:07;8.23;;;5.10;;
43124;SDS011;49182;50.788;7.318;2023-05-02T12:08:34;8.60;;;5.47;;
43124;SDS011;49182;50.788;7.318;2023-05-02T12:11:01;6.25;;;4.07;;
43124;SDS011;49182;50.788;7.318;2023-05-02T12:13:28;6.93;;;3.72;;
43124;SDS011;49182;50.788;7.318;2023-05-02T12:15:55;7.28;;;3.97;;
43124;SDS011;49182;50.788;7.318;2023-05-02T12:18:23;6.07;;;3.67;;
43124;SDS011;49182;50.788;7.318;2023-05-02T12:20:52;5.60;;;3.53;;
43124;SDS011;49182;50.788;7.318;2023-05-02T12:23:21;6.65;;;3.92;;
43124;SDS011;49182;50.788;7.318;2023-05-02T12:25:49;5.97;;;3.58;;
43124;SDS011;49182;50.788;7.318;2023-05-02T12:28:16;9.70;;;4.70;;
43124;SDS011;49182;50.788;7.318;2023-05-02T12:30:46;7.53;;;3.83;;
43124;SDS011;49182;50.788;7.318;2023-05-02T12:33:13;8.23;;;4.15;;
43124;SDS011;49182;50.788;7.318;2023-05-02T12:35:40;7.57;;;4.10;;
43124;SDS011;49182;50.788;7.318;2023-05-02T12:38:13;6.85;;;4.38;;
43124;SDS011;49182;50.788;7.318;2023-05-02T12:40:47;8.60;;;4.32;;
43124;SDS011;49182;50.788;7.318;2023-05-02T12:43:15;6.65;;;4.20;;
43124;SDS011;49182;50.788;7.318;2023-05-02T12:45:42;6.80;;;4.63;;
43124;SDS011;49182;50.788;7.318;2023-05-02T12:48:22;8.57;;;4.38;;
43124;SDS011;49182;50.788;7.318;2023-05-02T12:50:49;8.27;;;4.43;;
43124;SDS011;49182;50.788;7.318;2023-05-02T12:53:25;9.63;;;4.50;;
43124;SDS011;49182;50.788;7.318;2023-05-02T12:56:03;8.60;;;5.10;;
43124;SDS011;49182;50.788;7.318;2023-05-02T12:58:37;7.95;;;4.68;;
43124;SDS011;49182;50.788;7.318;2023-05-02T13:01:06;8.93;;;4.72;;
43124;SDS011;49182;50.788;7.318;2023-05-02T13:03:33;9.93;;;4.82;;
43124;SDS011;49182;50.788;7.318;2023-05-02T13:06:00;9.23;;;4.53;;
43124;SDS011;49182;50.788;7.318;2023-05-02T13:08:28;9.13;;;4.70;;
43124;SDS011;49182;50.788;7.318;2023-05-02T13:10:55;8.63;;;4.70;;
43124;SDS011;49182;50.788;7.318;2023-05-02T13:13:21;8.85;;;4.72;;
43124;SDS011;49182;50.788;7.318;2023-05-02T13:15:48;12.68;;;6.85;;
43124;SDS011;49182;50.788;7.318;2023-05-02T13:18:14;9.48;;;4.70;;
43124;SDS011;49182;50.788;7.318;2023-05-02T13:20:41;10.07;;;4.45;;
43124;SDS011;49182;50.788;7.318;2023-05-02T13:23:08;7.55;;;4.28;;
43124;SDS011;49182;50.788;7.318;2023-05-02T13:25:36;6.45;;;3.38;;
43124;SDS011;49182;50.788;7.318;2023-05-02T13:28:03;7.60;;;3.95;;
43124;SDS011;49182;50.788;7.318;2023-05-02T13:30:30;8.23;;;3.58;;
43124;SDS011;49182;50.788;7.318;2023-05-02T13:32:56;6.57;;;3.75;;
43124;SDS011;49182;50.788;7.318;2023-05-02T13:35:23;8.98;;;4.18;;
43124;SDS011;49182;50.788;7.318;2023-05-02T13:37:50;9.73;;;3.75;;
43124;SDS011;49182;50.788;7.318;2023-05-02T13:40:17;10.45;;;4.97;;
43124;SDS011;49182;50.788;7.318;2023-05-02T13:42:45;9.13;;;4.50;;
43124;SDS011;49182;50.788;7.318;2023-05-02T13:45:11;9.57;;;4.05;;
43124;SDS011;49182;50.788;7.318;2023-05-02T13:47:38;7.32;;;4.18;;
43124;SDS011;49182;50.788;7.318;2023-05-02T13:50:07;8.45;;;4.10;;
43124;SDS011;49182;50.788;7.318;2023-05-02T13:52:34;7.70;;;4.05;;
43124;SDS011;49182;50.788;7.318;2023-05-02T13:55:00;7.53;;;4.40;;
43124;SDS011;49182;50.788;7.318;2023-05-02T13:57:27;11.57;;;6.38;;
43124;SDS011;49182;50.788;7.318;2023-05-02T13:59:55;18.17;;;8.45;;
43124;SDS011;49182;50.788;7.318;2023-05-02T14:02:22;8.75;;;4.53;;
43124;SDS011;49182;50.788;7.318;2023-05-02T14:04:48;11.60;;;5.75;;
43124;SDS011;49182;50.788;7.318;2023-05-02T14:07:15;11.32;;;5.20;;
43124;SDS011;49182;50.788;7.318;2023-05-02T14:09:42;8.05;;;5.10;;
43124;SDS011;49182;50.788;7.318;2023-05-02T14:12:09;8.73;;;4.65;;
43124;SDS011;49182;50.788;7.318;2023-05-02T14:14:36;8.35;;;4.32;;
43124;SDS011;49182;50.788;7.318;2023-05-02T14:17:04;8.13;;;4.60;;
43124;SDS011;49182;50.788;7.318;2023-05-02T14:19:30;10.15;;;4.35;;
43124;SDS011;49182;50.788;7.318;2023-05-02T14:21:57;8.68;;;4.40;;
43124;SDS011;49182;50.788;7.318;2023-05-02T14:24:23;9.23;;;4.93;;
43124;SDS011;49182;50.788;7.318;2023-05-02T14:26:50;9.35;;;4.55;;
43124;SDS011;49182;50.788;7.318;2023-05-02T14:29:17;7.75;;;4.20;;
43124;SDS011;49182;50.788;7.318;2023-05-02T14:31:43;7.70;;;4.65;;
43124;SDS011;49182;50.788;7.318;2023-05-02T14:34:11;12.32;;;5.18;;
43124;SDS011;49182;50.788;7.318;2023-05-02T14:36:38;8.30;;;4.97;;
43124;SDS011;49182;50.788;7.318;2023-05-02T14:39:04;9.55;;;4.95;;
43124;SDS011;49182;50.788;7.318;2023-05-02T14:41:31;11.77;;;5.25;;
43124;SDS011;49182;50.788;7.318;2023-05-02T14:43:58;9.75;;;4.65;;
43124;SDS011;49182;50.788;7.318;2023-05-02T14:46:24;9.38;;;5.28;;
43124;SDS011;49182;50.788;7.318;2023-05-02T14:48:51;9.80;;;4.75;;
43124;SDS011;49182;50.788;7.318;2023-05-02T14:51:19;9.70;;;5.80;;
43124;SDS011;49182;50.788;7.318;2023-05-02T14:53:46;8.23;;;5.55;;
43124;SDS011;49182;50.788;7.318;2023-05-02T14:56:13;11.93;;;5.15;;
43124;SDS011;49182;50.788;7.318;2023-05-02T14:58:40;8.18;;;4.82;;